sensor_id;sensor_type;location;lat;lon;timestamp;temperature;humidity
23188;DHT22;11762;59.878;17.686;2023-07-29T01:41:31;11.20;99.90
23188;DHT22;11762;59.878;17.686;2023-07-29T01:43:58;11.20;99.90
23188;DHT22;11762;59.878;17.686;2023-07-29T01:46:25;11.20;99.90
23188;DHT22;11762;59.878;17.686;2023-07-29T01:48:53;11.20;99.90
23188;DHT22;11762;59.878;17.686;2023-07-29T01:51:20;11.20;99.90
23188;DHT22;11762;59.878;17.686;2023-07-29T01:53:47;11.20;99.90
23188;DHT22;11762;59.878;17.686;2023-07-29T01:56:14;11.20;99.90
23188;DHT22;11762;59.878;17.686;2023-07-29T01:58:43;11.10;99.90
23188;DHT22;11762;59.878;17.686;2023-07-29T02:01:10;11.10;99.90
23188;DHT22;11762;59.878;17.686;2023-07-29T02:03:37;11.10;99.90
23188;DHT22;11762;59.878;17.686;2023-07-29T02:06:04;11.20;99.90
23188;DHT22;11762;59.878;17.686;2023-07-29T02:08:31;11.10;99.90
23188;DHT22;11762;59.878;17.686;2023-07-29T02:10:58;11.10;99.90
23188;DHT22;11762;59.878;17.686;2023-07-29T02:13:25;11.10;99.90
23188;DHT22;11762;59.878;17.686;2023-07-29T02:15:53;11.10;99.90
23188;DHT22;11762;59.878;17.686;2023-07-29T02:18:20;11.10;99.90
23188;DHT22;11762;59.878;17.686;2023-07-29T02:20:48;11.10;99.90
23188;DHT22;11762;59.878;17.686;2023-07-29T02:23:15;11.10;99.90
23188;DHT22;11762;59.878;17.686;2023-07-29T02:25:42;11.10;99.90
23188;DHT22;11762;59.878;17.686;2023-07-29T02:28:10;11.10;99.90
23188;DHT22;11762;59.878;17.686;2023-07-29T02:30:37;11.10;99.90
23188;DHT22;11762;59.878;17.686;2023-07-29T02:33:05;11.10;99.90
23188;DHT22;11762;59.878;17.686;2023-07-29T02:35:32;11.20;99.90
23188;DHT22;11762;59.878;17.686;2023-07-29T02:37:59;11.20;99.90
23188;DHT22;11762;59.878;17.686;2023-07-29T02:40:26;11.20;99.90
23188;DHT22;11762;59.878;17.686;2023-07-29T02:42:55;11.20;99.90
23188;DHT22;11762;59.878;17.686;2023-07-29T02:45:22;11.20;99.90
23188;DHT22;11762;59.878;17.686;2023-07-29T02:47:49;11.20;99.90
23188;DHT22;11762;59.878;17.686;2023-07-29T02:50:17;11.20;99.90
23188;DHT22;11762;59.878;17.686;2023-07-29T02:52:44;11.20;99.90
23188;DHT22;11762;59.878;17.686;2023-07-29T02:55:11;11.30;99.90
23188;DHT22;11762;59.878;17.686;2023-07-29T02:57:38;11.40;99.90
23188;DHT22;11762;59.878;17.686;2023-07-29T03:00:06;11.50;99.90
23188;DHT22;11762;59.878;17.686;2023-07-29T03:02:33;11.60;99.90
23188;DHT22;11762;59.878;17.686;2023-07-29T03:05:01;11.70;99.90
23188;DHT22;11762;59.878;17.686;2023-07-29T03:07:30;11.70;99.90
23188;DHT22;11762;59.878;17.686;2023-07-29T03:09:57;11.70;99.90
23188;DHT22;11762;59.878;17.686;2023-07-29T03:12:24;11.80;99.90
23188;DHT22;11762;59.878;17.686;2023-07-29T03:14:52;11.80;99.90
23188;DHT22;11762;59.878;17.686;2023-07-29T03:17:19;11.70;99.90
23188;DHT22;11762;59.878;17.686;2023-07-29T03:19:46;11.70;99.90
23188;DHT22;11762;59.878;17.686;2023-07-29T03:22:13;11.70;99.90
23188;DHT22;11762;59.878;17.686;2023-07-29T03:24:41;11.70;99.90
23188;DHT22;11762;59.878;17.686;2023-07-29T03:27:08;11.70;99.90
23188;DHT22;11762;59.878;17.686;2023-07-29T03:29:36;11.70;99.90
23188;DHT22;11762;59.878;17.686;2023-07-29T03:32:03;11.70;99.90
23188;DHT22;11762;59.878;17.686;2023-07-29T03:34:31;11.80;99.90
23188;DHT22;11762;59.878;17.686;2023-07-29T03:36:58;12.00;99.90
23188;DHT22;11762;59.878;17.686;2023-07-29T03:39:25;12.10;99.90
23188;DHT22;11762;59.878;17.686;2023-07-29T03:41:54;12.20;99.90
23188;DHT22;11762;59.878;17.686;2023-07-29T03:44:21;12.20;99.90
23188;DHT22;11762;59.878;17.686;2023-07-29T03:46:48;12.30;99.90
23188;DHT22;11762;59.878;17.686;2023-07-29T03:49:15;12.40;99.90
23188;DHT22;11762;59.878;17.686;2023-07-29T03:51:42;12.40;99.90
23188;DHT22;11762;59.878;17.686;2023-07-29T03:54:09;12.50;99.90
23188;DHT22;11762;59.878;17.686;2023-07-29T03:56:36;12.60;99.90
23188;DHT22;11762;59.878;17.686;2023-07-29T03:59:05;12.60;99.90
23188;DHT22;11762;59.878;17.686;2023-07-29T04:01:32;12.70;99.90
23188;DHT22;11762;59.878;17.686;2023-07-29T04:03:59;12.70;99.90
23188;DHT22;11762;59.878;17.686;2023-07-29T04:06:26;12.90;99.90
23188;DHT22;11762;59.878;17.686;2023-07-29T04:08:53;12.80;99.90
23188;DHT22;11762;59.878;17.686;2023-07-29T04:11:20;12.90;99.90
23188;DHT22;11762;59.878;17.686;2023-07-29T04:13:47;13.00;99.90
23188;DHT22;11762;59.878;17.686;2023-07-29T04:16:16;13.00;99.90
23188;DHT22;11762;59.878;17.686;2023-07-29T04:18:43;13.00;99.90
23188;DHT22;11762;59.878;17.686;2023-07-29T04:21:11;13.10;99.90
23188;DHT22;11762;59.878;17.686;2023-07-29T04:23:38;13.20;99.90
23188;DHT22;11762;59.878;17.686;2023-07-29T04:26:06;13.30;99.90
23188;DHT22;11762;59.878;17.686;2023-07-29T04:28:33;13.40;99.90
23188;DHT22;11762;59.878;17.686;2023-07-29T04:31:00;13.50;99.90
23188;DHT22;11762;59.878;17.686;2023-07-29T04:33:29;13.60;99.90
23188;DHT22;11762;59.878;17.686;2023-07-29T04:35:56;13.70;99.90
23188;DHT22;11762;59.878;17.686;2023-07-29T04:38:29;13.80;99.90
23188;DHT22;11762;59.878;17.686;2023-07-29T04:40:56;13.90;99.90
23188;DHT22;11762;59.878;17.686;2023-07-29T04:43:27;14.00;99.90
23188;DHT22;11762;59.878;17.686;2023-07-29T04:45:54;14.10;99.90
23188;DHT22;11762;59.878;17.686;2023-07-29T04:48:21;14.10;99.90
23188;DHT22;11762;59.878;17.686;2023-07-29T04:50:49;14.30;99.90
23188;DHT22;11762;59.878;17.686;2023-07-29T04:53:16;14.30;99.90
23188;DHT22;11762;59.878;17.686;2023-07-29T04:55:43;14.40;99.90
23188;DHT22;11762;59.878;17.686;2023-07-29T04:58:10;14.40;99.90
23188;DHT22;11762;59.878;17.686;2023-07-29T05:00:37;14.60;99.90
23188;DHT22;11762;59.878;17.686;2023-07-29T05:03:04;14.70;99.90
23188;DHT22;11762;59.878;17.686;2023-07-29T05:05:32;15.00;99.90
23188;DHT22;11762;59.878;17.686;2023-07-29T05:08:00;15.40;99.90
23188;DHT22;11762;59.878;17.686;2023-07-29T05:10:27;16.10;99.90
23188;DHT22;11762;59.878;17.686;2023-07-29T05:12:54;16.90;99.90
23188;DHT22;11762;59.878;17.686;2023-07-29T05:15:21;17.70;99.90
23188;DHT22;11762;59.878;17.686;2023-07-29T05:17:48;18.20;99.90
23188;DHT22;11762;59.878;17.686;2023-07-29T05:20:15;18.70;99.90
23188;DHT22;11762;59.878;17.686;2023-07-29T05:22:42;19.00;99.90
23188;DHT22;11762;59.878;17.686;2023-07-29T05:25:11;19.30;99.90
23188;DHT22;11762;59.878;17.686;2023-07-29T05:27:38;19.50;99.90
23188;DHT22;11762;59.878;17.686;2023-07-29T05:30:06;19.90;99.90
23188;DHT22;11762;59.878;17.686;2023-07-29T05:32:34;20.30;99.90
23188;DHT22;11762;59.878;17.686;2023-07-29T05:35:01;20.40;99.90
23188;DHT22;11762;59.878;17.686;2023-07-29T05:37:28;20.40;99.90
23188;DHT22;11762;59.878;17.686;2023-07-29T05:39:55;20.50;99.90
23188;DHT22;11762;59.878;17.686;2023-07-29T05:42:23;20.50;99.90
23188;DHT22;11762;59.878;17.686;2023-07-29T05:44:50;20.60;99.90
23188;DHT22;11762;59.878;17.686;2023-07-29T05:47:17;20.70;99.90
23188;DHT22;11762;59.878;17.686;2023-07-29T05:49:44;20.70;99.90
23188;DHT22;11762;59.878;17.686;2023-07-29T05:52:11;21.00;99.90
23188;DHT22;11762;59.878;17.686;2023-07-29T05:54:39;21.10;99.90
23188;DHT22;11762;59.878;17.686;2023-07-29T05:57:06;21.20;99.90
23188;DHT22;11762;59.878;17.686;2023-07-29T05:59:34;21.40;99.90
23188;DHT22;11762;59.878;17.686;2023-07-29T06:02:01;21.70;99.90
23188;DHT22;11762;59.878;17.686;2023-07-29T06:04:28;22.00;99.90
23188;DHT22;11762;59.878;17.686;2023-07-29T06:06:55;22.10;99.90
23188;DHT22;11762;59.878;17.686;2023-07-29T06:09:23;22.20;99.90
23188;DHT22;11762;59.878;17.686;2023-07-29T06:11:51;22.40;99.90
23188;DHT22;11762;59.878;17.686;2023-07-29T06:14:18;22.20;99.90
23188;DHT22;11762;59.878;17.686;2023-07-29T06:16:47;21.90;99.90
23188;DHT22;11762;59.878;17.686;2023-07-29T06:19:14;21.80;99.90
23188;DHT22;11762;59.878;17.686;2023-07-29T06:21:41;22.00;99.90
23188;DHT22;11762;59.878;17.686;2023-07-29T06:24:08;22.30;99.90
23188;DHT22;11762;59.878;17.686;2023-07-29T06:26:35;22.40;99.90
23188;DHT22;11762;59.878;17.686;2023-07-29T06:29:02;22.40;99.90
23188;DHT22;11762;59.878;17.686;2023-07-29T06:31:29;22.60;99.90
23188;DHT22;11762;59.878;17.686;2023-07-29T06:33:59;22.80;99.90
23188;DHT22;11762;59.878;17.686;2023-07-29T06:36:26;22.60;99.90
23188;DHT22;11762;59.878;17.686;2023-07-29T06:38:53;22.80;99.90
23188;DHT22;11762;59.878;17.686;2023-07-29T06:41:20;22.90;99.90
23188;DHT22;11762;59.878;17.686;2023-07-29T06:43:47;22.60;99.90
23188;DHT22;11762;59.878;17.686;2023-07-29T06:46:14;22.60;99.90
23188;DHT22;11762;59.878;17.686;2023-07-29T06:48:41;22.80;99.90
23188;DHT22;11762;59.878;17.686;2023-07-29T06:51:10;23.00;99.90
23188;DHT22;11762;59.878;17.686;2023-07-29T06:53:37;22.80;99.90
23188;DHT22;11762;59.878;17.686;2023-07-29T06:56:04;22.70;99.90
23188;DHT22;11762;59.878;17.686;2023-07-29T06:58:31;22.40;99.90
23188;DHT22;11762;59.878;17.686;2023-07-29T07:00:58;22.70;99.90
23188;DHT22;11762;59.878;17.686;2023-07-29T07:03:25;22.70;99.90
23188;DHT22;11762;59.878;17.686;2023-07-29T07:05:52;23.00;99.90
23188;DHT22;11762;59.878;17.686;2023-07-29T07:08:20;23.20;99.90
23188;DHT22;11762;59.878;17.686;2023-07-29T07:10:47;23.60;99.90
23188;DHT22;11762;59.878;17.686;2023-07-29T07:13:14;23.50;99.90
23188;DHT22;11762;59.878;17.686;2023-07-29T07:15:42;23.30;99.90
23188;DHT22;11762;59.878;17.686;2023-07-29T07:18:09;23.40;99.90
23188;DHT22;11762;59.878;17.686;2023-07-29T07:20:36;23.40;99.90
23188;DHT22;11762;59.878;17.686;2023-07-29T07:23:03;23.40;99.90
23188;DHT22;11762;59.878;17.686;2023-07-29T07:25:32;23.60;99.90
23188;DHT22;11762;59.878;17.686;2023-07-29T07:27:59;23.60;99.90
23188;DHT22;11762;59.878;17.686;2023-07-29T07:30:26;23.60;99.90
23188;DHT22;11762;59.878;17.686;2023-07-29T07:32:53;23.10;99.90
23188;DHT22;11762;59.878;17.686;2023-07-29T07:35:20;22.10;99.90
23188;DHT22;11762;59.878;17.686;2023-07-29T07:37:47;21.50;99.90
23188;DHT22;11762;59.878;17.686;2023-07-29T07:40:14;21.20;99.90
23188;DHT22;11762;59.878;17.686;2023-07-29T07:42:43;21.20;99.90
23188;DHT22;11762;59.878;17.686;2023-07-29T07:45:10;21.10;99.90
23188;DHT22;11762;59.878;17.686;2023-07-29T07:47:37;20.90;99.90
23188;DHT22;11762;59.878;17.686;2023-07-29T07:50:05;20.90;99.90
23188;DHT22;11762;59.878;17.686;2023-07-29T07:52:32;21.00;99.90
23188;DHT22;11762;59.878;17.686;2023-07-29T07:54:59;21.10;99.90
23188;DHT22;11762;59.878;17.686;2023-07-29T07:57:27;21.10;99.90
23188;DHT22;11762;59.878;17.686;2023-07-29T07:59:55;21.00;99.90
23188;DHT22;11762;59.878;17.686;2023-07-29T08:02:22;21.10;99.90
23188;DHT22;11762;59.878;17.686;2023-07-29T08:04:49;21.10;99.90
23188;DHT22;11762;59.878;17.686;2023-07-29T08:07:16;21.10;99.90
23188;DHT22;11762;59.878;17.686;2023-07-29T08:09:44;21.00;99.90
23188;DHT22;11762;59.878;17.686;2023-07-29T08:12:11;21.10;99.90
23188;DHT22;11762;59.878;17.686;2023-07-29T08:14:38;21.20;99.90
23188;DHT22;11762;59.878;17.686;2023-07-29T08:17:06;21.30;99.90
23188;DHT22;11762;59.878;17.686;2023-07-29T08:19:33;21.30;99.90
23188;DHT22;11762;59.878;17.686;2023-07-29T08:22:02;21.40;99.90
23188;DHT22;11762;59.878;17.686;2023-07-29T08:24:29;21.50;99.90
23188;DHT22;11762;59.878;17.686;2023-07-29T08:26:56;21.60;99.90
23188;DHT22;11762;59.878;17.686;2023-07-29T08:29:23;21.70;99.90
23188;DHT22;11762;59.878;17.686;2023-07-29T08:31:51;21.60;99.90
23188;DHT22;11762;59.878;17.686;2023-07-29T08:34:19;21.70;99.90
23188;DHT22;11762;59.878;17.686;2023-07-29T08:36:47;21.90;99.90
23188;DHT22;11762;59.878;17.686;2023-07-29T08:39:15;22.00;99.90
23188;DHT22;11762;59.878;17.686;2023-07-29T08:41:50;22.00;99.90
23188;DHT22;11762;59.878;17.686;2023-07-29T08:44:22;22.10;99.90
23188;DHT22;11762;59.878;17.686;2023-07-29T08:46:49;22.20;99.90
23188;DHT22;11762;59.878;17.686;2023-07-29T08:49:19;22.20;99.90
23188;DHT22;11762;59.878;17.686;2023-07-29T08:51:49;22.20;99.90
23188;DHT22;11762;59.878;17.686;2023-07-29T08:54:16;22.20;99.90
23188;DHT22;11762;59.878;17.686;2023-07-29T08:56:44;22.20;99.90
23188;DHT22;11762;59.878;17.686;2023-07-29T08:59:12;22.30;99.90
23188;DHT22;11762;59.878;17.686;2023-07-29T09:01:40;22.10;99.90
23188;DHT22;11762;59.878;17.686;2023-07-29T09:04:08;22.20;99.90
23188;DHT22;11762;59.878;17.686;2023-07-29T09:06:36;22.20;99.90
23188;DHT22;11762;59.878;17.686;2023-07-29T09:09:04;22.30;99.90
23188;DHT22;11762;59.878;17.686;2023-07-29T09:11:33;22.30;99.90
23188;DHT22;11762;59.878;17.686;2023-07-29T09:14:00;22.30;99.90
23188;DHT22;11762;59.878;17.686;2023-07-29T09:16:27;22.30;99.90
23188;DHT22;11762;59.878;17.686;2023-07-29T09:18:54;22.40;99.90
23188;DHT22;11762;59.878;17.686;2023-07-29T09:21:23;22.50;99.90
23188;DHT22;11762;59.878;17.686;2023-07-29T09:23:52;22.50;99.90
23188;DHT22;11762;59.878;17.686;2023-07-29T09:26:22;22.50;99.90
23188;DHT22;11762;59.878;17.686;2023-07-29T09:28:52;22.50;99.90
23188;DHT22;11762;59.878;17.686;2023-07-29T09:31:20;22.40;99.90
23188;DHT22;11762;59.878;17.686;2023-07-29T09:33:47;22.40;99.90
23188;DHT22;11762;59.878;17.686;2023-07-29T09:36:14;22.50;99.90
23188;DHT22;11762;59.878;17.686;2023-07-29T09:38:43;22.60;99.90
23188;DHT22;11762;59.878;17.686;2023-07-29T09:41:15;22.70;99.90
23188;DHT22;11762;59.878;17.686;2023-07-29T09:43:42;22.80;99.90
23188;DHT22;11762;59.878;17.686;2023-07-29T09:46:09;22.70;99.90
23188;DHT22;11762;59.878;17.686;2023-07-29T09:48:37;22.90;99.90
23188;DHT22;11762;59.878;17.686;2023-07-29T09:51:10;22.90;99.90
23188;DHT22;11762;59.878;17.686;2023-07-29T09:53:43;22.90;99.90
23188;DHT22;11762;59.878;17.686;2023-07-29T09:56:10;22.80;99.90
23188;DHT22;11762;59.878;17.686;2023-07-29T09:58:39;22.80;99.90
23188;DHT22;11762;59.878;17.686;2023-07-29T10:01:06;22.80;99.90
23188;DHT22;11762;59.878;17.686;2023-07-29T10:03:33;22.90;99.90
23188;DHT22;11762;59.878;17.686;2023-07-29T10:06:01;22.90;99.90
23188;DHT22;11762;59.878;17.686;2023-07-29T10:08:29;23.00;99.90
23188;DHT22;11762;59.878;17.686;2023-07-29T10:10:59;23.10;99.90
23188;DHT22;11762;59.878;17.686;2023-07-29T10:13:26;23.20;99.90
23188;DHT22;11762;59.878;17.686;2023-07-29T10:15:55;23.30;99.90
23188;DHT22;11762;59.878;17.686;2023-07-29T10:18:23;23.40;99.90
23188;DHT22;11762;59.878;17.686;2023-07-29T10:20:51;23.40;99.90
23188;DHT22;11762;59.878;17.686;2023-07-29T10:23:21;23.30;99.90
23188;DHT22;11762;59.878;17.686;2023-07-29T10:25:53;23.40;99.90
23188;DHT22;11762;59.878;17.686;2023-07-29T10:28:25;23.30;99.90
23188;DHT22;11762;59.878;17.686;2023-07-29T10:30:55;23.20;99.90
23188;DHT22;11762;59.878;17.686;2023-07-29T10:33:23;23.10;99.90
23188;DHT22;11762;59.878;17.686;2023-07-29T10:35:50;23.00;99.90
23188;DHT22;11762;59.878;17.686;2023-07-29T10:38:18;23.10;99.90
23188;DHT22;11762;59.878;17.686;2023-07-29T10:40:47;23.40;99.90
23188;DHT22;11762;59.878;17.686;2023-07-29T10:43:23;23.70;99.90
23188;DHT22;11762;59.878;17.686;2023-07-29T10:45:50;23.80;99.90
23188;DHT22;11762;59.878;17.686;2023-07-29T10:48:43;23.80;99.90
23188;DHT22;11762;59.878;17.686;2023-07-29T10:51:25;23.70;99.90
23188;DHT22;11762;59.878;17.686;2023-07-29T10:53:55;23.70;99.90
23188;DHT22;11762;59.878;17.686;2023-07-29T10:56:30;24.00;99.90
23188;DHT22;11762;59.878;17.686;2023-07-29T11:01:52;24.20;99.90
23188;DHT22;11762;59.878;17.686;2023-07-29T11:04:25;24.40;99.90
23188;DHT22;11762;59.878;17.686;2023-07-29T11:07:23;24.60;99.90
23188;DHT22;11762;59.878;17.686;2023-07-29T11:09:59;24.50;99.90
23188;DHT22;11762;59.878;17.686;2023-07-29T11:12:48;24.40;99.90
23188;DHT22;11762;59.878;17.686;2023-07-29T11:15:21;23.90;99.90
23188;DHT22;11762;59.878;17.686;2023-07-29T11:17:50;23.80;99.90
23188;DHT22;11762;59.878;17.686;2023-07-29T11:20:20;23.90;99.90
23188;DHT22;11762;59.878;17.686;2023-07-29T11:22:48;24.10;99.90
23188;DHT22;11762;59.878;17.686;2023-07-29T11:25:17;24.10;99.90
23188;DHT22;11762;59.878;17.686;2023-07-29T11:27:45;24.10;99.90
23188;DHT22;11762;59.878;17.686;2023-07-29T11:30:15;23.90;99.90
23188;DHT22;11762;59.878;17.686;2023-07-29T11:32:43;23.80;99.90
23188;DHT22;11762;59.878;17.686;2023-07-29T11:35:12;23.80;99.90
23188;DHT22;11762;59.878;17.686;2023-07-29T11:37:44;24.00;99.90
23188;DHT22;11762;59.878;17.686;2023-07-29T11:40:14;24.20;99.90
23188;DHT22;11762;59.878;17.686;2023-07-29T11:42:42;24.20;99.90
23188;DHT22;11762;59.878;17.686;2023-07-29T11:45:09;24.20;99.90
23188;DHT22;11762;59.878;17.686;2023-07-29T11:47:37;24.10;99.90
23188;DHT22;11762;59.878;17.686;2023-07-29T11:50:05;24.00;99.90
23188;DHT22;11762;59.878;17.686;2023-07-29T11:52:33;24.10;99.90
23188;DHT22;11762;59.878;17.686;2023-07-29T11:55:02;24.40;99.90
23188;DHT22;11762;59.878;17.686;2023-07-29T11:57:30;24.70;99.90
23188;DHT22;11762;59.878;17.686;2023-07-29T11:59:57;24.80;99.90
23188;DHT22;11762;59.878;17.686;2023-07-29T12:02:25;25.00;99.90
23188;DHT22;11762;59.878;17.686;2023-07-29T12:04:52;25.10;99.90
23188;DHT22;11762;59.878;17.686;2023-07-29T12:07:20;25.20;99.90
23188;DHT22;11762;59.878;17.686;2023-07-29T12:09:47;25.00;99.90
23188;DHT22;11762;59.878;17.686;2023-07-29T12:12:17;24.70;99.90
23188;DHT22;11762;59.878;17.686;2023-07-29T12:14:45;24.50;99.90
23188;DHT22;11762;59.878;17.686;2023-07-29T12:17:13;24.40;99.90
23188;DHT22;11762;59.878;17.686;2023-07-29T12:19:40;24.30;99.90
23188;DHT22;11762;59.878;17.686;2023-07-29T12:22:09;24.20;99.90
23188;DHT22;11762;59.878;17.686;2023-07-29T12:24:38;24.20;99.90
23188;DHT22;11762;59.878;17.686;2023-07-29T12:27:09;24.10;99.90
23188;DHT22;11762;59.878;17.686;2023-07-29T12:29:41;24.00;99.90
23188;DHT22;11762;59.878;17.686;2023-07-29T12:32:10;24.00;99.90
23188;DHT22;11762;59.878;17.686;2023-07-29T12:34:38;24.30;99.90
23188;DHT22;11762;59.878;17.686;2023-07-29T12:37:06;24.70;99.90
23188;DHT22;11762;59.878;17.686;2023-07-29T12:39:38;24.90;99.90
23188;DHT22;11762;59.878;17.686;2023-07-29T12:42:06;25.00;99.90
23188;DHT22;11762;59.878;17.686;2023-07-29T12:44:35;24.90;99.90
23188;DHT22;11762;59.878;17.686;2023-07-29T12:47:05;25.00;99.90
23188;DHT22;11762;59.878;17.686;2023-07-29T12:49:32;25.30;99.90
23188;DHT22;11762;59.878;17.686;2023-07-29T12:51:59;25.00;99.90
23188;DHT22;11762;59.878;17.686;2023-07-29T12:54:27;24.70;99.90
23188;DHT22;11762;59.878;17.686;2023-07-29T12:56:54;24.60;99.90
23188;DHT22;11762;59.878;17.686;2023-07-29T12:59:21;25.00;99.90
23188;DHT22;11762;59.878;17.686;2023-07-29T13:01:48;25.20;99.90
23188;DHT22;11762;59.878;17.686;2023-07-29T13:04:16;25.30;99.90
23188;DHT22;11762;59.878;17.686;2023-07-29T13:06:43;25.30;99.90
23188;DHT22;11762;59.878;17.686;2023-07-29T13:09:10;25.20;99.90
23188;DHT22;11762;59.878;17.686;2023-07-29T13:11:37;25.20;99.90
23188;DHT22;11762;59.878;17.686;2023-07-29T13:14:04;25.20;99.90
23188;DHT22;11762;59.878;17.686;2023-07-29T13:16:31;25.20;99.90
23188;DHT22;11762;59.878;17.686;2023-07-29T13:18:58;25.10;99.90
23188;DHT22;11762;59.878;17.686;2023-07-29T13:21:27;25.10;99.90
23188;DHT22;11762;59.878;17.686;2023-07-29T13:23:54;25.20;99.90
23188;DHT22;11762;59.878;17.686;2023-07-29T13:26:21;25.30;99.90
23188;DHT22;11762;59.878;17.686;2023-07-29T13:28:48;25.00;99.90
23188;DHT22;11762;59.878;17.686;2023-07-29T13:31:15;24.80;99.90
23188;DHT22;11762;59.878;17.686;2023-07-29T13:33:42;25.00;99.90
23188;DHT22;11762;59.878;17.686;2023-07-29T13:36:09;25.10;99.90
23188;DHT22;11762;59.878;17.686;2023-07-29T13:38:37;25.10;99.90
23188;DHT22;11762;59.878;17.686;2023-07-29T13:41:05;25.00;99.90
23188;DHT22;11762;59.878;17.686;2023-07-29T13:43:32;24.90;99.90
23188;DHT22;11762;59.878;17.686;2023-07-29T13:45:59;24.80;99.90
23188;DHT22;11762;59.878;17.686;2023-07-29T13:48:26;24.80;99.90
23188;DHT22;11762;59.878;17.686;2023-07-29T13:50:53;25.00;99.90
23188;DHT22;11762;59.878;17.686;2023-07-29T13:53:20;25.00;99.90
23188;DHT22;11762;59.878;17.686;2023-07-29T13:55:48;24.90;99.90
23188;DHT22;11762;59.878;17.686;2023-07-29T13:58:15;24.60;99.90
23188;DHT22;11762;59.878;17.686;2023-07-29T14:00:42;24.10;99.90
23188;DHT22;11762;59.878;17.686;2023-07-29T14:03:09;24.00;99.90
23188;DHT22;11762;59.878;17.686;2023-07-29T14:05:36;24.10;99.90
23188;DHT22;11762;59.878;17.686;2023-07-29T14:08:03;24.40;99.90
23188;DHT22;11762;59.878;17.686;2023-07-29T14:10:30;24.50;99.90
23188;DHT22;11762;59.878;17.686;2023-07-29T14:12:59;24.50;99.90
23188;DHT22;11762;59.878;17.686;2023-07-29T14:15:26;24.60;99.90
23188;DHT22;11762;59.878;17.686;2023-07-29T14:17:54;24.60;99.90
23188;DHT22;11762;59.878;17.686;2023-07-29T14:20:21;24.60;99.90
23188;DHT22;11762;59.878;17.686;2023-07-29T14:22:48;24.50;99.90
23188;DHT22;11762;59.878;17.686;2023-07-29T14:25:15;24.50;99.90
23188;DHT22;11762;59.878;17.686;2023-07-29T14:27:42;24.40;99.90
23188;DHT22;11762;59.878;17.686;2023-07-29T14:30:11;24.40;99.90
23188;DHT22;11762;59.878;17.686;2023-07-29T14:32:38;24.30;99.90
23188;DHT22;11762;59.878;17.686;2023-07-29T14:35:05;24.30;99.90
23188;DHT22;11762;59.878;17.686;2023-07-29T14:37:33;24.50;99.90
23188;DHT22;11762;59.878;17.686;2023-07-29T14:40:01;24.50;99.90
23188;DHT22;11762;59.878;17.686;2023-07-29T14:42:28;24.40;99.90
23188;DHT22;11762;59.878;17.686;2023-07-29T14:44:55;24.50;99.90
23188;DHT22;11762;59.878;17.686;2023-07-29T14:47:23;24.40;99.90
23188;DHT22;11762;59.878;17.686;2023-07-29T14:49:51;24.30;99.90
23188;DHT22;11762;59.878;17.686;2023-07-29T14:52:18;24.30;99.90
23188;DHT22;11762;59.878;17.686;2023-07-29T14:54:45;24.30;99.90
23188;DHT22;11762;59.878;17.686;2023-07-29T14:57:12;24.30;99.90
23188;DHT22;11762;59.878;17.686;2023-07-29T14:59:39;24.20;99.90
23188;DHT22;11762;59.878;17.686;2023-07-29T15:02:06;24.10;99.90
23188;DHT22;11762;59.878;17.686;2023-07-29T15:04:35;24.20;99.90
23188;DHT22;11762;59.878;17.686;2023-07-29T15:07:02;24.20;99.90
23188;DHT22;11762;59.878;17.686;2023-07-29T15:09:29;24.20;99.90
23188;DHT22;11762;59.878;17.686;2023-07-29T15:11:56;24.20;99.90
23188;DHT22;11762;59.878;17.686;2023-07-29T15:14:23;24.10;99.90
23188;DHT22;11762;59.878;17.686;2023-07-29T15:16:51;24.10;99.90
23188;DHT22;11762;59.878;17.686;2023-07-29T15:19:18;24.10;99.90
23188;DHT22;11762;59.878;17.686;2023-07-29T15:21:46;24.00;99.90
23188;DHT22;11762;59.878;17.686;2023-07-29T15:24:14;23.90;99.90
23188;DHT22;11762;59.878;17.686;2023-07-29T15:26:41;23.90;99.90
23188;DHT22;11762;59.878;17.686;2023-07-29T15:29:08;24.00;99.90
23188;DHT22;11762;59.878;17.686;2023-07-29T15:31:35;23.90;99.90
23188;DHT22;11762;59.878;17.686;2023-07-29T15:34:02;23.80;99.90
23188;DHT22;11762;59.878;17.686;2023-07-29T15:36:30;23.90;99.90
23188;DHT22;11762;59.878;17.686;2023-07-29T15:38:58;23.80;99.90
23188;DHT22;11762;59.878;17.686;2023-07-29T15:41:25;23.70;99.90
23188;DHT22;11762;59.878;17.686;2023-07-29T15:43:52;23.60;99.90
23188;DHT22;11762;59.878;17.686;2023-07-29T15:46:20;23.50;99.90
23188;DHT22;11762;59.878;17.686;2023-07-29T15:48:47;23.40;99.90
23188;DHT22;11762;59.878;17.686;2023-07-29T15:51:14;23.30;99.90
23188;DHT22;11762;59.878;17.686;2023-07-29T15:53:41;23.20;99.90
23188;DHT22;11762;59.878;17.686;2023-07-29T15:56:09;23.00;99.90
23188;DHT22;11762;59.878;17.686;2023-07-29T15:58:37;23.10;99.90
23188;DHT22;11762;59.878;17.686;2023-07-29T16:01:05;23.10;99.90
23188;DHT22;11762;59.878;17.686;2023-07-29T16:03:32;23.10;99.90
23188;DHT22;11762;59.878;17.686;2023-07-29T16:05:59;23.30;99.90
23188;DHT22;11762;59.878;17.686;2023-07-29T16:08:27;23.30;99.90
23188;DHT22;11762;59.878;17.686;2023-07-29T16:10:54;23.30;99.90
23188;DHT22;11762;59.878;17.686;2023-07-29T16:13:23;23.20;99.90
23188;DHT22;11762;59.878;17.686;2023-07-29T16:15:50;23.10;99.90
23188;DHT22;11762;59.878;17.686;2023-07-29T16:18:17;23.10;99.90
23188;DHT22;11762;59.878;17.686;2023-07-29T16:20:44;23.10;99.90
23188;DHT22;11762;59.878;17.686;2023-07-29T16:23:12;23.10;99.90
23188;DHT22;11762;59.878;17.686;2023-07-29T16:25:39;23.30;99.90
23188;DHT22;11762;59.878;17.686;2023-07-29T16:28:06;23.60;99.90
23188;DHT22;11762;59.878;17.686;2023-07-29T16:30:34;23.80;99.90
23188;DHT22;11762;59.878;17.686;2023-07-29T16:33:02;23.90;99.90
23188;DHT22;11762;59.878;17.686;2023-07-29T16:35:29;23.90;99.90
23188;DHT22;11762;59.878;17.686;2023-07-29T16:37:56;23.90;99.90
23188;DHT22;11762;59.878;17.686;2023-07-29T16:40:25;23.80;99.90
23188;DHT22;11762;59.878;17.686;2023-07-29T16:42:52;23.70;99.90
23188;DHT22;11762;59.878;17.686;2023-07-29T16:45:19;23.70;99.90
23188;DHT22;11762;59.878;17.686;2023-07-29T16:47:48;23.70;99.90
23188;DHT22;11762;59.878;17.686;2023-07-29T16:50:15;23.70;99.90
23188;DHT22;11762;59.878;17.686;2023-07-29T16:52:42;23.70;99.90
23188;DHT22;11762;59.878;17.686;2023-07-29T16:55:09;23.70;99.90
23188;DHT22;11762;59.878;17.686;2023-07-29T16:57:36;23.70;99.90
23188;DHT22;11762;59.878;17.686;2023-07-29T17:00:04;23.70;99.90
23188;DHT22;11762;59.878;17.686;2023-07-29T17:02:32;23.60;99.90